Time;durP1;ratioP1;P1;durP2;ratioP2;P2;SDS_P1;SDS_P2;PMS_P1;PMS_P2;Temp;Humidity;BMP_temperature;BMP_pressure;BME280_temperature;BME280_humidity;BME280_pressure;Samples;Min_cycle;Max_cycle;Signal;HPM_P1;HPM_P2
2022/03/02 00:02:19;;;;;;;19.30;12.07;;;;;;;-1.56;86.13;99033.78;5113753;28;20214;-70
2022/03/02 00:04:46;;;;;;;18.93;12.60;;;;;;;-1.52;85.27;99035.47;5111807;28;20220;-70
2022/03/02 00:07:14;;;;;;;22.67;12.60;;;;;;;-1.54;85.41;99045.00;5113428;28;20228;-70
2022/03/02 00:09:40;;;;;;;20.03;12.70;;;;;;;-1.52;85.56;99040.66;5113696;28;20238;-70
2022/03/02 00:12:07;;;;;;;16.83;11.77;;;;;;;-1.55;85.58;99041.53;5113528;28;20206;-70
2022/03/02 00:14:34;;;;;;;24.23;12.47;;;;;;;-1.54;85.48;99039.81;5113483;28;20210;-70
2022/03/02 00:17:00;;;;;;;18.40;12.50;;;;;;;-1.54;85.32;99021.69;5113564;28;20217;-70
2022/03/02 00:19:27;;;;;;;18.83;12.27;;;;;;;-1.45;85.78;99013.81;5113448;28;20231;-70
2022/03/02 00:21:53;;;;;;;19.40;12.43;;;;;;;-1.32;84.29;99005.06;5113487;28;20209;-70
2022/03/02 00:24:21;;;;;;;17.93;12.47;;;;;;;-1.19;83.61;98999.75;5113478;28;20211;-70
2022/03/02 00:26:48;;;;;;;17.23;12.40;;;;;;;-1.22;83.47;99009.31;5113089;28;20693;-70
2022/03/02 00:29:14;;;;;;;18.97;12.70;;;;;;;-1.16;83.73;99009.25;5111391;28;20740;-70
2022/03/02 00:31:41;;;;;;;18.77;12.77;;;;;;;-1.03;83.88;98997.88;5115788;28;20217;-70
2022/03/02 00:34:07;;;;;;;16.63;11.83;;;;;;;-1.02;83.62;99002.19;5120251;28;20575;-70
2022/03/02 00:36:34;;;;;;;19.17;12.50;;;;;;;-0.98;84.42;98991.75;5120264;28;20217;-70
2022/03/02 00:39:00;;;;;;;16.93;11.63;;;;;;;-0.88;83.89;99010.69;5120176;28;20213;-70
2022/03/02 00:41:28;;;;;;;16.73;11.50;;;;;;;-0.87;84.12;99018.47;5120116;28;20221;-69
2022/03/02 00:43:55;;;;;;;16.93;11.60;;;;;;;-0.85;84.36;99015.84;5112483;28;20692;-70
2022/03/02 00:46:26;;;;;;;17.67;11.30;;;;;;;-0.77;83.51;99014.91;5119942;28;20243;-70
2022/03/02 00:48:53;;;;;;;17.40;11.83;;;;;;;-0.67;82.83;99005.28;5120188;28;20214;-70
2022/03/02 00:51:20;;;;;;;17.23;11.77;;;;;;;-0.61;81.28;99011.25;5119836;28;20214;-70
2022/03/02 00:53:47;;;;;;;19.73;11.60;;;;;;;-0.47;81.18;99008.50;5120173;28;20220;-70
2022/03/02 00:56:13;;;;;;;15.50;11.00;;;;;;;-0.39;80.21;99001.50;5118301;28;20218;-70
2022/03/02 00:58:41;;;;;;;16.20;11.47;;;;;;;-0.29;79.21;98997.88;5119753;28;20217;-70
2022/03/02 01:01:08;;;;;;;16.63;11.20;;;;;;;-0.28;79.42;98995.28;5119853;28;20235;-70
2022/03/02 01:03:35;;;;;;;17.00;11.60;;;;;;;-0.26;78.98;98985.72;5120064;28;20301;-70
2022/03/02 01:06:03;;;;;;;18.40;11.53;;;;;;;-0.20;78.38;98982.19;5120031;28;20215;-70
2022/03/02 01:08:30;;;;;;;18.13;12.23;;;;;;;-0.24;77.98;98980.50;5119974;28;20219;-70
2022/03/02 01:10:57;;;;;;;17.23;11.70;;;;;;;-0.26;78.39;98987.47;5119392;28;20237;-70
2022/03/02 01:13:23;;;;;;;16.27;11.50;;;;;;;-0.25;78.09;98994.38;5119861;28;20223;-70
2022/03/02 01:15:51;;;;;;;17.93;11.87;;;;;;;-0.22;77.89;98988.25;5119941;28;20222;-69
2022/03/02 01:18:18;;;;;;;17.50;11.90;;;;;;;-0.24;78.52;98981.38;5119842;28;20212;-70
2022/03/02 01:20:45;;;;;;;15.33;10.67;;;;;;;-0.28;77.80;98988.31;5117979;28;20338;-70
2022/03/02 01:23:12;;;;;;;17.83;11.90;;;;;;;-0.29;78.22;98982.31;5112209;28;20212;-70
2022/03/02 01:25:38;;;;;;;15.47;11.30;;;;;;;-0.33;78.95;98978.06;5119738;28;20216;-70
2022/03/02 01:28:05;;;;;;;16.60;11.27;;;;;;;-0.34;78.61;98973.72;5119797;28;20239;-70
2022/03/02 01:30:32;;;;;;;18.27;11.93;;;;;;;-0.40;78.30;98974.66;5119743;28;20211;-70
2022/03/02 01:32:59;;;;;;;16.53;11.43;;;;;;;-0.41;78.02;98977.25;5119636;28;20582;-70
2022/03/02 01:35:26;;;;;;;16.43;11.37;;;;;;;-0.41;78.44;98972.06;5120053;28;20222;-70
2022/03/02 01:37:52;;;;;;;16.67;11.37;;;;;;;-0.47;78.30;98972.16;5119681;28;20220;-70
2022/03/02 01:40:19;;;;;;;17.73;11.00;;;;;;;-0.49;77.80;98964.38;5119592;28;20238;-70
2022/03/02 01:42:45;;;;;;;16.73;10.97;;;;;;;-0.54;78.10;98965.31;5118237;28;20575;-71
2022/03/02 01:45:15;;;;;;;14.90;10.47;;;;;;;-0.66;78.65;98968.06;5115743;28;20214;-70
2022/03/02 01:47:41;;;;;;;17.13;10.87;;;;;;;-0.68;78.44;98956.84;5114677;28;20216;-70
2022/03/02 01:50:12;;;;;;;14.37;10.80;;;;;;;-0.78;78.62;98960.41;5116386;28;20235;-70
2022/03/02 01:52:38;;;;;;;14.10;10.03;;;;;;;-0.84;79.29;98955.28;5116149;28;20216;-70
2022/03/02 01:55:07;;;;;;;15.00;10.77;;;;;;;-0.88;79.72;98953.59;5116338;28;20257;-70
2022/03/02 01:57:34;;;;;;;13.87;9.90;;;;;;;-0.91;78.82;98944.16;5113452;28;20212;-70
2022/03/02 02:00:01;;;;;;;17.17;10.43;;;;;;;-0.98;80.02;98952.00;5108543;28;20232;-70
2022/03/02 02:02:27;;;;;;;15.50;10.53;;;;;;;-0.96;79.60;98955.44;5107040;28;20228;-70
2022/03/02 02:04:54;;;;;;;15.43;9.67;;;;;;;-0.99;79.22;98945.94;5105563;28;20223;-70
2022/03/02 02:07:22;;;;;;;16.83;9.93;;;;;;;-1.08;79.81;98940.00;5109043;28;20260;-70
2022/03/02 02:09:49;;;;;;;14.07;10.13;;;;;;;-1.23;80.19;98925.44;5109256;28;20274;-70
2022/03/02 02:12:15;;;;;;;14.83;10.23;;;;;;;-1.32;81.45;98924.69;5109435;28;20217;-70
2022/03/02 02:14:42;;;;;;;14.60;9.93;;;;;;;-1.37;81.13;98918.69;5114216;28;20211;-70
2022/03/02 02:17:08;;;;;;;14.10;10.50;;;;;;;-1.53;82.39;98915.38;5115687;28;20202;-70
2022/03/02 02:19:35;;;;;;;14.97;9.57;;;;;;;-1.64;83.05;98900.81;5115363;28;20211;-71
2022/03/02 02:22:03;;;;;;;12.70;9.60;;;;;;;-1.75;82.90;98913.00;5115461;28;20211;-71
2022/03/02 02:24:30;;;;;;;18.37;11.00;;;;;;;-1.89;84.27;98909.66;5115367;28;20212;-71
2022/03/02 02:26:57;;;;;;;18.87;10.80;;;;;;;-2.01;85.04;98905.44;5115583;28;20217;-71
2022/03/02 02:29:24;;;;;;;14.10;9.63;;;;;;;-2.15;85.83;98903.81;5115230;28;20221;-71
2022/03/02 02:31:51;;;;;;;14.43;9.33;;;;;;;-2.23;86.52;98896.09;5115212;28;20667;-71
2022/03/02 02:34:18;;;;;;;15.63;10.57;;;;;;;-2.26;87.20;98892.69;5115345;28;20233;-71
2022/03/02 02:36:44;;;;;;;15.03;9.90;;;;;;;-2.32;87.66;98883.22;5115394;28;20214;-70
2022/03/02 02:39:12;;;;;;;17.57;10.60;;;;;;;-2.39;89.11;98880.69;5107752;28;20210;-70
2022/03/02 02:41:38;;;;;;;16.73;11.00;;;;;;;-2.37;89.40;98879.81;5109016;28;20230;-70
2022/03/02 02:44:05;;;;;;;17.87;11.83;;;;;;;-2.39;90.49;98880.69;5115327;28;20206;-70
2022/03/02 02:46:32;;;;;;;18.60;11.50;;;;;;;-2.40;91.02;98884.16;5115227;28;20206;-70
2022/03/02 02:48:58;;;;;;;17.50;11.90;;;;;;;-2.41;91.47;98890.16;5115108;28;20214;-70
2022/03/02 02:51:25;;;;;;;20.10;12.27;;;;;;;-2.30;90.95;98890.97;5115118;28;20583;-70
2022/03/02 02:53:51;;;;;;;18.17;12.63;;;;;;;-2.26;91.66;98892.69;5115114;28;20215;-70
2022/03/02 02:56:20;;;;;;;19.40;12.53;;;;;;;-2.23;91.38;98897.81;5114765;28;20217;-70
2022/03/02 02:58:47;;;;;;;18.23;12.40;;;;;;;-2.18;91.51;98901.25;5115063;28;20278;-70
2022/03/02 03:01:14;;;;;;;17.50;11.90;;;;;;;-2.09;90.95;98901.19;5114856;28;20322;-71
2022/03/02 03:03:40;;;;;;;17.33;12.17;;;;;;;-2.05;89.99;98893.38;5114586;28;20210;-70
2022/03/02 03:06:06;;;;;;;18.13;12.03;;;;;;;-2.05;89.60;98895.97;5112842;28;20214;-70
2022/03/02 03:08:33;;;;;;;16.83;11.73;;;;;;;-2.04;89.82;98892.50;5114770;28;20244;-70
2022/03/02 03:10:59;;;;;;;17.80;11.37;;;;;;;-2.05;89.18;98887.34;5114329;28;20245;-70
2022/03/02 03:13:27;;;;;;;18.77;12.13;;;;;;;-2.06;89.86;98895.97;5114547;28;20214;-71
2022/03/02 03:15:54;;;;;;;18.90;12.03;;;;;;;-2.05;90.76;98895.09;5114300;28;20209;-71
2022/03/02 03:18:20;;;;;;;18.83;12.47;;;;;;;-1.88;89.92;98896.72;5114101;28;20663;-72
2022/03/02 03:20:47;;;;;;;18.13;12.70;;;;;;;-1.77;90.36;98892.28;5114398;28;20249;-71
2022/03/02 03:23:14;;;;;;;17.73;11.87;;;;;;;-1.77;90.05;98899.19;5114480;28;20229;-72
2022/03/02 03:25:40;;;;;;;23.07;13.10;;;;;;;-1.83;90.52;98899.25;5114429;28;20214;-70
2022/03/02 03:28:07;;;;;;;19.10;12.43;;;;;;;-1.88;90.57;98890.66;5114505;28;20243;-70
2022/03/02 03:30:35;;;;;;;18.50;12.57;;;;;;;-1.92;91.62;98886.34;5114433;28;20217;-71
2022/03/02 03:33:04;;;;;;;20.80;12.13;;;;;;;-1.94;91.97;98881.22;5105427;28;20218;-70
2022/03/02 03:35:31;;;;;;;19.27;12.43;;;;;;;-1.95;91.48;98869.16;5114269;28;20210;-70
2022/03/02 03:37:58;;;;;;;17.37;12.23;;;;;;;-1.98;91.25;98876.03;5114198;28;20630;-70
2022/03/02 03:40:24;;;;;;;18.70;12.70;;;;;;;-2.06;91.88;98885.63;5113775;28;20241;-70
2022/03/02 03:42:52;;;;;;;16.60;11.70;;;;;;;-2.11;92.09;98874.44;5106521;28;20217;-70
2022/03/02 03:45:19;;;;;;;20.07;12.10;;;;;;;-2.08;91.75;98884.78;5113869;28;20210;-70
2022/03/02 03:47:47;;;;;;;19.77;12.17;;;;;;;-2.06;92.86;98881.31;5114117;28;20210;-70
2022/03/02 03:50:13;;;;;;;18.33;11.80;;;;;;;-2.03;92.47;98885.63;5114070;28;20229;-70
2022/03/02 03:52:40;;;;;;;16.83;11.70;;;;;;;-1.95;92.13;98881.22;5106540;28;20211;-70
2022/03/02 03:55:09;;;;;;;16.33;11.37;;;;;;;-1.89;91.72;98874.25;5109384;28;20672;-70
2022/03/02 03:57:36;;;;;;;20.57;11.90;;;;;;;-1.87;90.73;98882.00;5112146;28;20213;-71
2022/03/02 04:00:07;;;;;;;18.17;12.00;;;;;;;-1.88;91.03;98877.69;5113467;28;20236;-71
2022/03/02 04:02:33;;;;;;;17.97;12.20;;;;;;;-1.90;91.17;98875.13;5106729;28;20210;-72
2022/03/02 04:05:01;;;;;;;17.40;12.17;;;;;;;-2.04;91.61;98878.69;5113371;28;20218;-72
2022/03/02 04:07:27;;;;;;;20.73;12.50;;;;;;;-2.10;91.29;98874.44;5112969;28;20258;-71
2022/03/02 04:09:54;;;;;;;17.03;11.50;;;;;;;-2.25;91.10;98879.72;5113256;28;20241;-72
2022/03/02 04:12:20;;;;;;;15.30;11.27;;;;;;;-2.38;90.83;98872.06;5106133;28;20218;-71
2022/03/02 04:14:48;;;;;;;17.37;11.30;;;;;;;-2.46;91.35;98868.66;5113389;28;20210;-71
2022/03/02 04:17:14;;;;;;;17.37;11.77;;;;;;;-2.50;90.86;98867.78;5113493;28;20263;-71
2022/03/02 04:19:41;;;;;;;17.90;12.00;;;;;;;-2.60;92.25;98865.28;5113305;28;20587;-71
2022/03/02 04:22:08;;;;;;;17.17;11.20;;;;;;;-2.65;93.70;98857.56;5113351;28;20243;-72
2022/03/02 04:24:35;;;;;;;17.63;11.77;;;;;;;-2.58;93.75;98850.63;5111596;28;20221;-70
2022/03/02 04:27:01;;;;;;;19.53;11.63;;;;;;;-2.60;94.70;98854.94;5113107;28;20214;-70
2022/03/02 04:29:28;;;;;;;16.87;10.90;;;;;;;-2.54;94.55;98849.72;5113239;28;20739;-69
2022/03/02 04:31:54;;;;;;;18.43;12.07;;;;;;;-2.49;94.20;98853.16;5113327;28;20211;-69
2022/03/02 04:34:21;;;;;;;19.53;11.93;;;;;;;-2.49;94.05;98841.06;5113477;28;20217;-69
2022/03/02 04:36:47;;;;;;;16.50;11.50;;;;;;;-2.44;94.28;98841.88;5113101;28;20217;-71
2022/03/02 04:39:15;;;;;;;19.30;11.90;;;;;;;-2.45;94.46;98839.31;5113471;28;20210;-70
2022/03/02 04:41:41;;;;;;;17.03;11.17;;;;;;;-2.44;93.73;98835.84;5113014;28;20699;-70
2022/03/02 04:44:08;;;;;;;16.53;11.27;;;;;;;-2.44;93.32;98835.84;5113423;28;20214;-70
2022/03/02 04:46:34;;;;;;;17.53;10.97;;;;;;;-2.50;93.99;98835.91;5112901;28;20217;-70
2022/03/02 04:49:10;;;;;;;16.13;10.60;;;;;;;-2.51;93.78;98829.00;5111270;28;20389;-71
2022/03/02 04:51:37;;;;;;;19.13;11.40;;;;;;;-2.66;95.21;98829.97;5113358;28;20217;-70
2022/03/02 04:54:04;;;;;;;16.57;11.83;;;;;;;-2.66;95.62;98834.28;5113364;28;20221;-70
2022/03/02 04:56:32;;;;;;;18.20;11.53;;;;;;;-2.67;96.22;98835.16;5110264;28;20218;-71
2022/03/02 04:58:58;;;;;;;17.00;12.50;;;;;;;-2.62;95.98;98833.41;5113200;28;20211;-70
2022/03/02 05:01:25;;;;;;;17.07;11.97;;;;;;;-2.62;95.27;98825.63;5113083;28;20241;-71
2022/03/02 05:03:51;;;;;;;20.57;12.63;;;;;;;-2.60;94.81;98826.47;5113115;28;20225;-71
2022/03/02 05:06:17;;;;;;;20.83;12.47;;;;;;;-2.72;95.15;98824.84;5113038;28;20221;-70
2022/03/02 05:08:44;;;;;;;16.37;11.40;;;;;;;-2.73;94.47;98828.28;5112924;28;20214;-71
2022/03/02 05:11:11;;;;;;;17.53;11.57;;;;;;;-2.79;94.44;98828.34;5110982;28;20238;-71
2022/03/02 05:13:38;;;;;;;18.23;11.30;;;;;;;-2.83;95.29;98820.56;5113198;28;20232;-70
2022/03/02 05:16:05;;;;;;;18.40;11.83;;;;;;;-2.87;94.94;98821.47;5111387;28;20221;-71
2022/03/02 05:18:32;;;;;;;17.23;12.03;;;;;;;-2.90;94.87;98821.47;5115377;28;20206;-71
2022/03/02 05:20:58;;;;;;;17.97;12.30;;;;;;;-2.88;94.83;98822.34;5116896;28;20298;-72
2022/03/02 05:23:25;;;;;;;19.73;11.83;;;;;;;-2.87;94.44;98818.91;5117022;28;20225;-70
2022/03/02 05:25:51;;;;;;;22.03;12.83;;;;;;;-2.98;94.61;98815.50;5116956;28;20599;-70
2022/03/02 05:28:18;;;;;;;16.67;11.70;;;;;;;-3.05;95.29;98819.00;5116638;28;20206;-70
2022/03/02 05:30:46;;;;;;;18.90;12.43;;;;;;;-3.15;96.25;98822.47;5116633;28;20591;-70
2022/03/02 05:33:12;;;;;;;18.73;11.23;;;;;;;-3.17;97.05;98819.03;5116770;28;20232;-70
2022/03/02 05:35:39;;;;;;;15.67;10.97;;;;;;;-3.13;96.91;98820.75;5116498;28;20217;-70
2022/03/02 05:38:05;;;;;;;16.47;10.87;;;;;;;-3.10;96.95;98818.16;5116357;28;20228;-70
2022/03/02 05:40:32;;;;;;;16.70;11.07;;;;;;;-3.11;96.96;98813.84;5116462;28;20217;-70
2022/03/02 05:42:59;;;;;;;16.87;11.43;;;;;;;-3.19;97.52;98810.44;5114894;28;20233;-70
2022/03/02 05:45:25;;;;;;;15.40;10.63;;;;;;;-3.18;97.80;98807.00;5116453;28;20217;-70
2022/03/02 05:47:53;;;;;;;17.67;11.03;;;;;;;-3.19;97.99;98815.63;5116547;28;20209;-70
2022/03/02 05:50:19;;;;;;;17.87;11.37;;;;;;;-3.17;97.95;98811.28;5116274;28;20210;-71
2022/03/02 05:52:46;;;;;;;22.07;11.77;;;;;;;-3.16;99.33;98805.25;5116412;28;20210;-71
2022/03/02 05:55:13;;;;;;;15.97;11.40;;;;;;;-3.02;98.95;98808.63;5116241;28;20300;-70
2022/03/02 05:57:39;;;;;;;16.40;10.83;;;;;;;-2.89;97.93;98816.31;5115902;28;20234;-71
2022/03/02 06:00:08;;;;;;;15.70;10.47;;;;;;;-2.73;96.90;98812.78;5115977;28;20221;-69
2022/03/02 06:02:34;;;;;;;17.30;11.73;;;;;;;-2.64;95.67;98801.50;5116054;28;20290;-70
2022/03/02 06:05:02;;;;;;;14.63;10.77;;;;;;;-2.65;96.44;98804.94;5116207;28;20213;-69
2022/03/02 06:07:29;;;;;;;16.77;11.43;;;;;;;-2.55;96.23;98816.97;5114091;28;20667;-70
2022/03/02 06:09:56;;;;;;;15.63;10.63;;;;;;;-2.48;95.91;98813.44;5115646;28;20711;-69
2022/03/02 06:12:23;;;;;;;14.57;10.20;;;;;;;-2.41;96.45;98805.63;5116057;28;20586;-69
2022/03/02 06:14:50;;;;;;;15.47;10.53;;;;;;;-2.31;96.88;98803.84;5115806;28;20214;-70
2022/03/02 06:17:17;;;;;;;16.20;10.93;;;;;;;-2.18;96.47;98802.84;5115712;28;20232;-70
2022/03/02 06:19:44;;;;;;;17.30;10.17;;;;;;;-2.09;97.13;98792.44;5115902;28;20225;-70
2022/03/02 06:22:12;;;;;;;19.10;12.23;;;;;;;-2.03;97.48;98797.56;5115488;28;20234;-70
2022/03/02 06:24:39;;;;;;;16.80;10.47;;;;;;;-1.95;98.19;98790.56;5115122;28;20210;-72
2022/03/02 06:27:06;;;;;;;14.43;10.57;;;;;;;-1.75;97.07;98799.00;5115834;28;20225;-70
2022/03/02 06:29:32;;;;;;;20.03;12.13;;;;;;;-1.60;95.67;98801.44;5115176;28;20233;-70
2022/03/02 06:31:59;;;;;;;15.23;11.20;;;;;;;-1.47;94.12;98797.84;5107903;28;20210;-70
2022/03/02 06:34:26;;;;;;;16.83;11.83;;;;;;;-1.38;92.93;98797.72;5113913;28;20218;-70
2022/03/02 06:36:52;;;;;;;19.47;11.63;;;;;;;-1.21;92.35;98804.44;5115495;28;21268;-70
2022/03/02 06:39:22;;;;;;;16.30;10.30;;;;;;;-1.13;92.07;98806.91;5115372;28;20595;-71
2022/03/02 06:42:01;;;;;;;15.23;10.43;;;;;;;-1.05;91.60;98805.94;5107616;28;20233;-70
2022/03/02 06:44:32;;;;;;;16.60;11.70;;;;;;;-0.98;91.18;98804.97;5115000;28;20683;-69
2022/03/02 06:47:03;;;;;;;17.77;11.93;;;;;;;-0.91;91.93;98809.22;5109289;28;20247;-70
2022/03/02 06:49:45;;;;;;;15.30;10.53;;;;;;;-0.86;92.04;98801.38;5115189;28;20213;-70
2022/03/02 06:52:12;;;;;;;18.60;11.07;;;;;;;-0.74;91.68;98790.81;5115082;28;20227;-70
2022/03/02 06:54:43;;;;;;;15.03;10.77;;;;;;;-0.62;90.80;98795.84;5114858;28;20215;-70
2022/03/02 06:57:13;;;;;;;15.70;10.93;;;;;;;-0.51;90.65;98799.97;5114710;28;20686;-70
2022/03/02 06:59:41;;;;;;;18.70;11.97;;;;;;;-0.44;89.76;98803.34;5113049;28;20271;-71
2022/03/02 07:02:09;;;;;;;17.60;11.23;;;;;;;-0.34;87.85;98792.78;5114544;28;20238;-69
2022/03/02 07:04:39;;;;;;;18.47;11.30;;;;;;;-0.25;87.75;98807.38;5114680;28;20223;-70
2022/03/02 07:07:06;;;;;;;18.23;12.00;;;;;;;-0.17;86.29;98813.28;5114871;28;20214;-71
2022/03/02 07:09:34;;;;;;;17.60;11.60;;;;;;;-0.14;85.52;98811.50;5114873;28;20246;-71
2022/03/02 07:12:03;;;;;;;16.73;11.93;;;;;;;-0.14;86.62;98806.31;5114563;28;20634;-70
2022/03/02 07:14:31;;;;;;;17.53;12.90;;;;;;;0.01;85.95;98806.91;5114695;28;20218;-70
2022/03/02 07:16:59;;;;;;;17.37;11.80;;;;;;;0.16;85.47;98811.00;5114244;28;20209;-71
2022/03/02 07:19:26;;;;;;;20.60;13.10;;;;;;;0.17;84.11;98816.16;5114573;28;20216;-70
2022/03/02 07:21:53;;;;;;;20.13;12.93;;;;;;;0.26;84.38;98807.34;5114418;28;20243;-71
2022/03/02 07:24:22;;;;;;;17.73;12.37;;;;;;;0.32;83.87;98818.47;5114500;28;20217;-70
2022/03/02 07:26:53;;;;;;;18.13;11.67;;;;;;;0.37;82.45;98821.03;5112444;28;20265;-71
2022/03/02 07:29:22;;;;;;;17.60;12.80;;;;;;;0.41;82.21;98807.94;5114150;28;20681;-71
2022/03/02 07:31:51;;;;;;;17.90;12.70;;;;;;;0.51;82.60;98822.47;5114176;28;20216;-70
2022/03/02 07:34:19;;;;;;;21.77;12.67;;;;;;;0.61;82.28;98816.22;5114431;28;20216;-70
2022/03/02 07:36:46;;;;;;;19.17;12.43;;;;;;;0.69;81.31;98811.69;5114052;28;20223;-71
2022/03/02 07:39:13;;;;;;;19.03;11.83;;;;;;;0.76;81.70;98810.72;5114287;28;20222;-70
2022/03/02 07:41:39;;;;;;;21.50;13.07;;;;;;;0.83;81.27;98807.09;5113142;28;20237;-70
2022/03/02 07:44:07;;;;;;;22.07;12.57;;;;;;;0.93;81.37;98818.19;5114256;28;20207;-71
2022/03/02 07:46:35;;;;;;;18.60;12.70;;;;;;;1.00;81.08;98814.56;5114040;28;20213;-72
2022/03/02 07:49:02;;;;;;;17.93;12.93;;;;;;;1.04;81.79;98822.28;5113922;28;20217;-70
2022/03/02 07:51:28;;;;;;;17.73;12.30;;;;;;;1.11;81.76;98821.25;5112183;28;20213;-70
2022/03/02 07:54:00;;;;;;;17.63;11.03;;;;;;;1.17;81.74;98808.09;5114075;28;20213;-70
2022/03/02 07:56:29;;;;;;;15.77;11.07;;;;;;;1.19;82.45;98801.13;5113945;28;20559;-73
2022/03/02 07:59:01;;;;;;;12.37;9.40;;;;;;;1.26;82.00;98812.25;5114034;28;20220;-71
2022/03/02 08:01:27;;;;;;;13.40;10.27;;;;;;;1.32;81.47;98804.31;5111542;28;20223;-71
2022/03/02 08:03:58;;;;;;;14.77;10.83;;;;;;;1.35;81.35;98812.91;5113491;28;20272;-71
2022/03/02 08:06:25;;;;;;;15.90;11.37;;;;;;;1.42;81.52;98818.84;5106027;28;20681;-70
2022/03/02 08:08:52;;;;;;;19.30;11.03;;;;;;;1.52;80.82;98816.00;5113720;28;20218;-72
2022/03/02 08:11:20;;;;;;;16.80;11.73;;;;;;;1.60;80.26;98821.06;5113801;28;20247;-72
2022/03/02 08:13:46;;;;;;;19.60;12.60;;;;;;;1.71;79.68;98822.50;5113663;28;20224;-71
2022/03/02 08:16:13;;;;;;;17.03;12.07;;;;;;;1.78;79.75;98821.47;5105998;28;20224;-72
2022/03/02 08:18:40;;;;;;;17.20;12.97;;;;;;;1.88;80.03;98825.56;5111833;28;20204;-71
2022/03/02 08:21:09;;;;;;;16.73;12.40;;;;;;;1.94;80.66;98817.59;5110750;28;20211;-71
2022/03/02 08:23:38;;;;;;;16.53;12.33;;;;;;;2.05;80.02;98813.00;5112680;28;20606;-71
2022/03/02 08:26:06;;;;;;;16.27;11.90;;;;;;;2.17;79.96;98817.91;5112276;28;20697;-72
2022/03/02 08:28:35;;;;;;;18.50;11.00;;;;;;;2.27;79.23;98814.16;5111797;28;20226;-71
2022/03/02 08:31:01;;;;;;;17.20;11.53;;;;;;;2.38;78.02;98812.13;5105104;28;20665;-72
2022/03/02 08:33:33;;;;;;;17.63;12.30;;;;;;;2.49;78.08;98804.88;5095625;28;20217;-71
2022/03/02 08:35:59;;;;;;;17.53;11.67;;;;;;;2.57;76.85;98802.91;5111444;28;20213;-70
2022/03/02 08:38:27;;;;;;;16.33;11.87;;;;;;;2.70;75.88;98796.44;5112279;28;20218;-70
2022/03/02 08:40:54;;;;;;;18.60;12.43;;;;;;;2.82;74.65;98801.34;5112270;28;20592;-71
2022/03/02 08:43:21;;;;;;;19.00;11.93;;;;;;;2.92;73.87;98808.03;5109556;28;20235;-70
2022/03/02 08:45:50;;;;;;;15.17;11.10;;;;;;;3.09;72.77;98795.34;5112556;28;20248;-71
2022/03/02 08:48:17;;;;;;;15.13;11.50;;;;;;;3.22;72.18;98795.81;5112669;28;20217;-70
2022/03/02 08:50:45;;;;;;;15.83;10.63;;;;;;;3.35;71.53;98790.19;5111682;28;20231;-74
2022/03/02 08:53:15;;;;;;;17.00;11.87;;;;;;;3.47;70.53;98784.59;5114382;28;20222;-72
2022/03/02 08:55:44;;;;;;;17.07;11.87;;;;;;;3.58;69.96;98777.28;5116741;28;20213;-73
2022/03/02 08:58:11;;;;;;;16.93;12.33;;;;;;;3.69;69.41;98790.88;5115972;28;20217;-73
2022/03/02 09:00:39;;;;;;;17.57;12.23;;;;;;;3.76;69.33;98781.06;5116272;28;20212;-73
2022/03/02 09:03:06;;;;;;;18.97;12.33;;;;;;;3.87;67.12;98785.06;5116413;28;20251;-73
2022/03/02 09:05:33;;;;;;;18.73;12.63;;;;;;;3.94;66.64;98773.50;5115203;28;20222;-73
2022/03/02 09:08:00;;;;;;;14.97;11.40;;;;;;;4.03;66.24;98785.41;5116311;28;20481;-71
2022/03/02 09:10:29;;;;;;;16.07;11.53;;;;;;;4.11;66.49;98794.72;5114531;28;20252;-71
2022/03/02 09:12:59;;;;;;;15.60;12.30;;;;;;;4.28;66.23;98787.16;5115583;28;20277;-71
2022/03/02 09:15:26;;;;;;;15.87;11.40;;;;;;;4.42;64.21;98773.59;5114112;28;20213;-70
2022/03/02 09:17:52;;;;;;;16.77;12.27;;;;;;;4.58;64.42;98772.16;5116238;28;20209;-72
2022/03/02 09:20:19;;;;;;;18.40;12.40;;;;;;;4.72;64.45;98778.63;5115367;28;20216;-71
2022/03/02 09:22:45;;;;;;;15.97;11.43;;;;;;;4.83;61.98;98781.69;5115945;28;20626;-72
2022/03/02 09:25:12;;;;;;;16.13;11.07;;;;;;;4.93;61.66;98782.22;5115535;28;20217;-72
2022/03/02 09:27:39;;;;;;;15.77;12.10;;;;;;;5.03;60.05;98770.50;5115672;28;20230;-72
2022/03/02 09:30:10;;;;;;;17.83;11.77;;;;;;;5.02;60.04;98767.00;5115683;28;20217;-73
2022/03/02 09:32:39;;;;;;;16.43;11.87;;;;;;;5.14;59.59;98777.03;5104708;28;20225;-72
2022/03/02 09:35:11;;;;;;;16.73;11.40;;;;;;;5.23;59.57;98774.06;5112100;28;20596;-72
2022/03/02 09:37:41;;;;;;;18.13;12.77;;;;;;;5.30;58.62;98772.94;5114194;28;20245;-71
2022/03/02 09:40:20;;;;;;;18.03;12.10;;;;;;;5.47;57.72;98770.53;5115473;28;20228;-72
2022/03/02 09:42:55;;;;;;;13.60;11.23;;;;;;;5.65;57.71;98769.81;5113076;28;20260;-72
2022/03/02 09:45:25;;;;;;;17.33;11.60;;;;;;;5.89;57.05;98763.59;5104777;28;20595;-72
2022/03/02 09:47:53;;;;;;;15.80;11.23;;;;;;;6.09;55.88;98768.88;5115447;28;20216;-72
2022/03/02 09:50:22;;;;;;;16.87;11.30;;;;;;;6.25;54.96;98759.47;5114877;28;20238;-71
2022/03/02 09:52:49;;;;;;;14.93;11.03;;;;;;;6.31;53.56;98761.84;5112924;28;20210;-70
2022/03/02 09:55:21;;;;;;;13.30;11.23;;;;;;;6.29;53.04;98763.66;5115407;28;20221;-71
2022/03/02 09:57:52;;;;;;;16.10;11.43;;;;;;;6.35;52.92;98759.94;5114516;28;20211;-70
2022/03/02 10:00:20;;;;;;;15.13;11.30;;;;;;;6.34;52.32;98755.59;5115250;28;20212;-70
2022/03/02 10:02:52;;;;;;;14.23;10.87;;;;;;;6.30;51.47;98754.84;5113566;28;20242;-72
2022/03/02 10:05:21;;;;;;;14.57;10.27;;;;;;;6.33;51.55;98753.88;5115063;28;20578;-72
2022/03/02 10:07:56;;;;;;;15.80;10.93;;;;;;;6.41;52.00;98760.50;5116147;28;20215;-72
2022/03/02 10:10:24;;;;;;;15.87;10.73;;;;;;;6.44;52.00;98757.75;5112876;28;20595;-71
2022/03/02 10:12:51;;;;;;;14.20;10.53;;;;;;;6.52;52.14;98741.66;5114139;28;20247;-73
2022/03/02 10:15:19;;;;;;;16.97;11.10;;;;;;;6.54;52.69;98740.66;5115890;28;20625;-71
2022/03/02 10:17:51;;;;;;;18.03;11.07;;;;;;;6.57;52.79;98748.44;5114275;28;20245;-71
2022/03/02 10:20:19;;;;;;;13.87;10.10;;;;;;;6.82;52.47;98746.44;5113451;28;20217;-71
2022/03/02 10:23:05;;;;;;;14.47;10.83;;;;;;;6.90;50.53;98744.31;5114906;28;20235;-70
2022/03/02 10:25:50;;;;;;;11.53;9.27;;;;;;;7.00;49.45;98737.72;5115693;28;20210;-71
2022/03/02 10:28:24;;;;;;;12.07;9.40;;;;;;;7.17;49.99;98740.44;5098853;28;20287;-70
2022/03/02 10:31:13;;;;;;;13.83;10.10;;;;;;;7.40;49.84;98733.19;5113834;28;20241;-71
2022/03/02 10:33:48;;;;;;;15.50;10.77;;;;;;;7.66;47.93;98739.84;5103299;28;20215;-71
2022/03/02 10:36:16;;;;;;;12.80;10.17;;;;;;;7.73;47.14;98746.50;5112653;28;20257;-72
2022/03/02 10:38:50;;;;;;;14.93;10.10;;;;;;;7.70;45.88;98741.38;5112570;28;20207;-72
2022/03/02 10:41:20;;;;;;;13.30;9.80;;;;;;;7.75;47.10;98734.97;5111449;28;20214;-72
2022/03/02 10:43:52;;;;;;;12.93;10.03;;;;;;;7.77;46.33;98724.41;5113462;28;20301;-73
2022/03/02 10:46:22;;;;;;;13.53;9.73;;;;;;;7.80;47.13;98721.59;5113451;28;20223;-72
2022/03/02 10:49:03;;;;;;;13.07;10.20;;;;;;;7.86;46.60;98716.03;5113189;28;20220;-72
2022/03/02 10:51:31;;;;;;;11.60;9.03;;;;;;;7.96;46.60;98717.31;5114682;28;20248;-72
2022/03/02 10:54:01;;;;;;;13.80;9.87;;;;;;;8.05;46.45;98714.19;5115235;28;20215;-72
2022/03/02 10:56:29;;;;;;;13.13;9.53;;;;;;;8.06;46.56;98715.88;5113214;28;20220;-72
2022/03/02 10:58:56;;;;;;;14.37;10.57;;;;;;;8.05;45.89;98714.19;5115006;28;20215;-70
2022/03/02 11:01:23;;;;;;;13.37;10.33;;;;;;;7.98;45.88;98712.81;5100189;28;20220;-73
2022/03/02 11:03:52;;;;;;;14.33;10.53;;;;;;;7.85;45.53;98716.97;5114851;28;20241;-70
2022/03/02 11:06:21;;;;;;;11.03;9.60;;;;;;;7.81;45.50;98708.38;5114750;28;20214;-72
2022/03/02 11:08:49;;;;;;;13.97;10.33;;;;;;;7.81;45.71;98707.50;5114739;28;20216;-72
2022/03/02 11:11:18;;;;;;;13.23;10.03;;;;;;;7.75;46.13;98699.91;5098750;28;20221;-70
2022/03/02 11:13:46;;;;;;;14.23;9.97;;;;;;;7.62;45.48;98701.44;5114648;28;20218;-70
2022/03/02 11:16:19;;;;;;;11.97;9.77;;;;;;;7.52;45.19;98692.28;5114511;28;20216;-70
2022/03/02 11:18:50;;;;;;;13.90;10.23;;;;;;;7.58;46.59;98689.34;5114400;28;20209;-70
2022/03/02 11:21:20;;;;;;;13.77;10.53;;;;;;;7.63;46.60;98682.97;5112788;28;20211;-70
2022/03/02 11:23:50;;;;;;;14.80;10.40;;;;;;;7.73;46.52;98680.72;5114294;28;20715;-70
2022/03/02 11:26:18;;;;;;;14.67;10.47;;;;;;;7.81;46.53;98681.19;5099969;28;20300;-71